createdAt,value
2019-05-22T00:00:27.495Z,1.82
2019-05-22T00:02:57.864Z,2.05
2019-05-22T00:05:38.611Z,4.72
2019-05-22T00:08:09.370Z,5.00
2019-05-22T00:10:39.504Z,3.60
2019-05-22T00:13:10.447Z,3.65
2019-05-22T00:15:40.098Z,2.62
2019-05-22T00:18:10.291Z,3.67
2019-05-22T00:20:39.345Z,4.03
2019-05-22T00:23:10.056Z,2.50
2019-05-22T00:25:38.782Z,4.00
2019-05-22T00:28:08.229Z,3.75
2019-05-22T00:30:38.912Z,3.80
2019-05-22T00:33:09.883Z,2.42
2019-05-22T00:35:38.636Z,2.08
2019-05-22T00:38:09.511Z,2.20
2019-05-22T00:40:53.290Z,3.27
2019-05-22T00:43:30.386Z,6.58
2019-05-22T00:46:02.437Z,2.60
2019-05-22T00:48:34.350Z,2.42
2019-05-22T00:51:07.555Z,3.85
2019-05-22T00:53:53.999Z,2.25
2019-05-22T00:56:34.714Z,2.20
2019-05-22T00:59:07.520Z,2.67
2019-05-22T01:01:39.605Z,2.33
2019-05-22T01:04:10.086Z,4.08
2019-05-22T01:06:38.962Z,2.70
2019-05-22T01:09:10.322Z,3.12
2019-05-22T01:11:39.752Z,3.92
2019-05-22T01:14:09.652Z,2.00
2019-05-22T01:16:39.583Z,2.20
2019-05-22T01:19:09.553Z,4.67
2019-05-22T01:21:38.451Z,1.98
2019-05-22T01:24:07.899Z,2.30
2019-05-22T01:26:36.858Z,4.67
2019-05-22T01:29:07.427Z,4.42
2019-05-22T01:31:44.352Z,2.08
2019-05-22T01:34:15.641Z,2.20
2019-05-22T01:36:46.076Z,4.40
2019-05-22T01:39:28.031Z,1.70
2019-05-22T01:41:59.002Z,2.75
2019-05-22T01:44:28.605Z,3.62
2019-05-22T01:47:00.242Z,1.75
2019-05-22T01:49:30.995Z,1.60
2019-05-22T01:51:59.884Z,2.40
2019-05-22T01:54:30.381Z,1.40
2019-05-22T01:57:07.123Z,2.40
2019-05-22T01:59:37.044Z,3.27
2019-05-22T02:02:08.900Z,1.72
2019-05-22T02:04:38.664Z,1.87
2019-05-22T02:07:09.610Z,1.60
2019-05-22T02:09:40.683Z,1.65
2019-05-22T02:12:18.704Z,1.60
2019-05-22T02:14:49.882Z,1.90
2019-05-22T02:17:21.475Z,1.90
2019-05-22T02:19:50.814Z,3.05
2019-05-22T02:22:20.081Z,2.27
2019-05-22T02:24:50.355Z,2.45
2019-05-22T02:27:20.528Z,1.98
2019-05-22T02:29:49.624Z,2.27
2019-05-22T02:32:21.402Z,3.35
2019-05-22T02:34:50.727Z,2.85
2019-05-22T02:37:21.120Z,1.80
2019-05-22T02:39:50.513Z,1.67
2019-05-22T02:42:25.983Z,1.65
2019-05-22T02:44:55.605Z,1.87
2019-05-22T02:47:25.180Z,1.60
2019-05-22T02:49:56.040Z,1.60
2019-05-22T02:52:25.330Z,1.60
2019-05-22T02:54:55.600Z,1.67
2019-05-22T02:57:26.702Z,2.75
2019-05-22T02:59:56.616Z,2.35
2019-05-22T03:02:26.662Z,3.80
2019-05-22T03:04:59.379Z,2.15
2019-05-22T03:07:30.064Z,1.98
2019-05-22T03:10:01.298Z,3.80
2019-05-22T03:12:32.615Z,3.15
2019-05-22T03:15:02.355Z,4.47
2019-05-22T03:17:32.163Z,2.42
2019-05-22T03:20:04.636Z,3.40
2019-05-22T03:22:55.662Z,2.13
2019-05-22T03:25:28.040Z,2.83
2019-05-22T03:27:57.366Z,4.62
2019-05-22T03:30:30.341Z,2.45
2019-05-22T03:33:00.452Z,3.98
2019-05-22T03:35:30.963Z,2.20
2019-05-22T03:38:01.350Z,2.87
2019-05-22T03:40:31.924Z,2.92
2019-05-22T03:43:04.195Z,3.20
2019-05-22T03:45:32.917Z,2.33
2019-05-22T03:48:04.960Z,2.52
2019-05-22T03:50:33.594Z,2.90
2019-05-22T03:53:17.110Z,2.42
2019-05-22T03:55:48.497Z,4.03
2019-05-22T03:58:18.424Z,2.87
2019-05-22T04:00:49.740Z,3.22
2019-05-22T04:03:19.544Z,1.98
2019-05-22T04:05:48.770Z,2.40
2019-05-22T04:08:19.511Z,4.28
2019-05-22T04:10:57.279Z,2.65
2019-05-22T04:13:25.938Z,3.02
2019-05-22T04:15:55.503Z,3.33
2019-05-22T04:18:26.404Z,2.60
2019-05-22T04:20:57.485Z,4.33
2019-05-22T04:23:26.227Z,5.05
2019-05-22T04:25:56.690Z,5.72
2019-05-22T04:28:26.352Z,4.60
2019-05-22T04:30:54.919Z,3.30
2019-05-22T04:33:24.412Z,3.77
2019-05-22T04:35:53.772Z,3.08
2019-05-22T04:38:23.381Z,6.03
2019-05-22T04:40:54.419Z,3.00
2019-05-22T04:43:24.119Z,4.42
2019-05-22T04:45:54.920Z,3.83
2019-05-22T04:48:25.461Z,3.42
2019-05-22T04:50:54.798Z,3.35
2019-05-22T04:53:24.072Z,3.85
2019-05-22T04:55:53.304Z,3.52
2019-05-22T04:58:26.633Z,3.58
2019-05-22T05:03:23.434Z,4.15
2019-05-22T05:05:52.747Z,4.72
2019-05-22T05:08:21.757Z,5.25
2019-05-22T05:10:55.089Z,6.05
2019-05-22T05:13:23.990Z,4.40
2019-05-22T05:15:52.518Z,5.22
2019-05-22T05:18:21.402Z,6.90
2019-05-22T05:20:50.715Z,4.72
2019-05-22T05:23:19.285Z,5.55
2019-05-22T05:25:48.688Z,5.28
2019-05-22T05:28:17.713Z,5.25
2019-05-22T05:30:46.417Z,5.70
2019-05-22T05:33:15.503Z,6.53
2019-05-22T05:35:45.881Z,7.90
2019-05-22T05:38:16.017Z,5.72
2019-05-22T05:40:45.371Z,8.30
2019-05-22T05:43:16.227Z,5.87
2019-05-22T05:45:47.669Z,5.75
2019-05-22T05:48:19.199Z,6.00
2019-05-22T05:51:10.273Z,7.97
2019-05-22T05:54:00.087Z,6.65
2019-05-22T05:56:31.966Z,6.50
2019-05-22T05:59:03.317Z,5.45
2019-05-22T06:01:36.528Z,8.60
2019-05-22T06:04:05.238Z,6.50
2019-05-22T06:06:38.412Z,6.50
2019-05-22T06:09:10.682Z,5.83
2019-05-22T06:11:52.242Z,5.65
2019-05-22T06:14:32.627Z,6.30
2019-05-22T06:17:26.707Z,6.80
2019-05-22T06:20:00.455Z,5.78
2019-05-22T06:22:30.227Z,6.20
2019-05-22T06:25:02.746Z,6.30
2019-05-22T06:27:42.239Z,7.28
2019-05-22T06:30:15.711Z,7.55
2019-05-22T06:35:33.864Z,8.58
2019-05-22T06:38:25.584Z,13.85
2019-05-22T06:40:54.829Z,8.95
2019-05-22T06:43:27.872Z,14.23
2019-05-22T06:45:57.113Z,9.48
2019-05-22T06:48:25.678Z,7.03
2019-05-22T06:50:54.687Z,6.67
2019-05-22T06:53:23.328Z,7.17
2019-05-22T06:55:51.934Z,7.40
2019-05-22T06:58:20.861Z,5.33
2019-05-22T07:00:49.591Z,6.58
2019-05-22T07:03:18.873Z,4.72
2019-05-22T07:05:47.816Z,5.05
2019-05-22T07:08:17.123Z,9.65
2019-05-22T07:10:46.709Z,5.50
2019-05-22T07:13:16.968Z,6.22
2019-05-22T07:15:47.725Z,5.20
2019-05-22T07:18:17.926Z,5.58
2019-05-22T07:20:48.793Z,4.97
2019-05-22T07:23:21.427Z,5.25
2019-05-22T07:25:51.850Z,5.92
2019-05-22T07:28:20.708Z,6.12
2019-05-22T07:30:50.625Z,5.42
2019-05-22T07:33:19.714Z,4.33
2019-05-22T07:36:07.949Z,4.40
2019-05-22T07:38:20.156Z,4.35
2019-05-22T07:40:51.184Z,5.50
2019-05-22T07:43:22.131Z,8.00
2019-05-22T07:45:51.714Z,5.08
2019-05-22T07:48:21.946Z,4.08
2019-05-22T07:50:52.155Z,3.52
2019-05-22T07:53:21.173Z,5.28
2019-05-22T07:55:51.703Z,4.53
2019-05-22T07:58:20.677Z,4.50
2019-05-22T08:00:52.039Z,3.50
2019-05-22T08:03:21.564Z,3.42
2019-05-22T08:05:56.227Z,3.60
2019-05-22T08:08:25.919Z,4.35
2019-05-22T08:10:56.364Z,3.15
2019-05-22T08:13:26.680Z,4.20
2019-05-22T08:15:55.705Z,4.55
2019-05-22T08:18:26.161Z,3.83
2019-05-22T08:20:55.178Z,5.00
2019-05-22T08:23:25.451Z,6.08
2019-05-22T08:25:54.132Z,4.28
2019-05-22T08:28:23.739Z,4.45
2019-05-22T08:30:53.738Z,3.62
2019-05-22T08:33:23.483Z,4.87
2019-05-22T08:35:53.391Z,4.72
2019-05-22T08:38:25.621Z,6.58
2019-05-22T08:40:54.595Z,5.12
2019-05-22T08:43:24.403Z,3.87
2019-05-22T08:45:54.205Z,5.47
2019-05-22T08:48:23.940Z,5.20
2019-05-22T08:50:54.166Z,3.83
2019-05-22T08:53:24.368Z,4.10
2019-05-22T08:55:54.616Z,3.50
2019-05-22T08:58:23.152Z,4.75
2019-05-22T09:00:52.413Z,3.80
2019-05-22T09:03:21.998Z,3.47
2019-05-22T09:05:50.705Z,4.10
2019-05-22T09:08:19.583Z,5.28
2019-05-22T09:10:48.510Z,5.87
2019-05-22T09:13:17.135Z,5.28
2019-05-22T09:15:47.403Z,3.67
2019-05-22T09:18:17.101Z,3.55
2019-05-22T09:20:49.418Z,3.15
2019-05-22T09:23:17.500Z,3.70
2019-05-22T09:25:46.511Z,4.45
2019-05-22T09:28:15.558Z,3.50
2019-05-22T09:30:44.734Z,2.20
2019-05-22T09:33:14.770Z,5.72
2019-05-22T09:35:43.554Z,2.12
2019-05-22T09:38:12.121Z,2.50
2019-05-22T09:40:41.516Z,3.65
2019-05-22T09:43:10.190Z,4.55
2019-05-22T09:45:38.951Z,9.68
2019-05-22T09:48:09.753Z,2.50
2019-05-22T09:50:39.652Z,2.85
2019-05-22T09:53:09.188Z,2.77
2019-05-22T09:55:38.460Z,2.60
2019-05-22T09:58:07.901Z,3.87
2019-05-22T10:00:37.080Z,2.20
2019-05-22T10:03:07.012Z,2.55
2019-05-22T10:05:36.092Z,2.50
2019-05-22T10:08:05.653Z,2.47
2019-05-22T10:10:34.389Z,2.70
2019-05-22T10:13:03.718Z,2.27
2019-05-22T10:15:33.211Z,2.33
2019-05-22T10:18:01.747Z,2.80
2019-05-22T10:20:30.988Z,3.30
2019-05-22T10:23:14.703Z,3.17
2019-05-22T10:25:32.001Z,3.83
2019-05-22T10:28:00.738Z,2.10
2019-05-22T10:30:29.810Z,2.47
2019-05-22T10:32:59.121Z,5.22
2019-05-22T10:35:29.709Z,3.30
2019-05-22T10:37:58.247Z,4.40
2019-05-22T10:40:27.992Z,2.77
2019-05-22T10:42:57.573Z,2.33
2019-05-22T10:45:28.053Z,2.45
2019-05-22T10:47:57.127Z,3.95
2019-05-22T10:50:26.779Z,1.72
2019-05-22T10:52:55.894Z,2.15
2019-05-22T10:55:26.540Z,2.75
2019-05-22T10:57:55.879Z,3.70
2019-05-22T11:00:27.180Z,4.10
2019-05-22T11:02:56.465Z,4.40
2019-05-22T11:05:25.512Z,2.60
2019-05-22T11:07:54.204Z,1.40
2019-05-22T11:10:25.000Z,2.08
2019-05-22T11:12:54.662Z,4.42
2019-05-22T11:15:25.543Z,1.60
2019-05-22T11:17:56.005Z,1.60
2019-05-22T11:20:25.611Z,2.65
2019-05-22T11:22:54.590Z,4.75
2019-05-22T11:25:23.373Z,4.33
2019-05-22T11:27:54.478Z,2.20
2019-05-22T11:30:23.880Z,5.83
2019-05-22T11:32:53.806Z,2.77
2019-05-22T11:35:23.119Z,2.98
2019-05-22T11:37:51.711Z,7.10
2019-05-22T11:40:22.907Z,1.90
2019-05-22T11:42:53.213Z,1.30
2019-05-22T11:45:22.716Z,3.30
2019-05-22T11:47:52.390Z,3.37
2019-05-22T11:50:23.801Z,1.70
2019-05-22T11:52:52.822Z,4.33
2019-05-22T11:55:22.101Z,2.42
2019-05-22T11:57:51.779Z,2.50
2019-05-22T12:00:21.929Z,4.08
2019-05-22T12:02:51.508Z,2.50
2019-05-22T12:05:21.450Z,2.85
2019-05-22T12:07:51.126Z,2.95
2019-05-22T12:10:22.035Z,5.03
2019-05-22T12:12:53.670Z,2.47
2019-05-22T12:15:26.433Z,1.52
2019-05-22T12:17:55.620Z,7.53
2019-05-22T12:20:26.312Z,3.72
2019-05-22T12:22:57.053Z,1.82
2019-05-22T12:25:26.591Z,1.70
2019-05-22T12:27:55.948Z,1.45
2019-05-22T12:30:25.579Z,1.82
2019-05-22T12:32:55.494Z,1.37
2019-05-22T12:35:25.509Z,1.30
2019-05-22T12:37:54.705Z,1.35
2019-05-22T12:40:24.211Z,1.65
2019-05-22T12:42:53.130Z,3.02
2019-05-22T12:45:29.070Z,1.42
2019-05-22T12:47:59.302Z,4.60
2019-05-22T12:50:30.083Z,2.67
2019-05-22T12:53:01.221Z,4.12
2019-05-22T12:55:30.596Z,1.75
2019-05-22T12:58:00.408Z,2.67
2019-05-22T13:00:31.622Z,2.15
2019-05-22T13:03:01.875Z,1.77
2019-05-22T13:05:31.468Z,1.10
2019-05-22T13:08:01.258Z,1.67
2019-05-22T13:10:30.303Z,3.55
2019-05-22T13:12:59.327Z,5.40
2019-05-22T13:15:28.013Z,2.85
2019-05-22T13:17:58.407Z,2.87
2019-05-22T13:20:41.981Z,3.00
2019-05-22T13:23:03.390Z,3.30
2019-05-22T13:25:35.887Z,4.85
2019-05-22T13:28:07.722Z,3.05
2019-05-22T13:30:39.234Z,7.25
2019-05-22T13:33:11.483Z,2.90
2019-05-22T13:35:41.751Z,3.20
2019-05-22T13:38:13.062Z,3.67
2019-05-22T13:40:43.867Z,18.32
2019-05-22T13:43:12.532Z,4.25
2019-05-22T13:45:41.579Z,3.33
2019-05-22T13:48:11.761Z,3.33
2019-05-22T13:50:40.579Z,5.10
2019-05-22T13:53:11.218Z,5.15
2019-05-22T13:55:41.268Z,4.95
2019-05-22T13:58:11.752Z,2.83
2019-05-22T14:00:41.716Z,5.78
2019-05-22T14:03:11.242Z,5.03
2019-05-22T14:05:41.908Z,5.37
2019-05-22T14:08:11.656Z,5.28
2019-05-22T14:10:40.329Z,5.00
2019-05-22T14:13:09.500Z,14.28
2019-05-22T14:15:50.523Z,6.15
2019-05-22T14:18:08.746Z,5.60
2019-05-22T14:20:39.445Z,6.92
2019-05-22T14:23:08.150Z,5.20
2019-05-22T14:25:38.121Z,6.15
2019-05-22T14:28:08.840Z,4.47
2019-05-22T14:30:38.657Z,5.75
2019-05-22T14:33:07.264Z,7.47
2019-05-22T14:35:48.371Z,5.80
2019-05-22T14:38:09.935Z,14.53
2019-05-22T14:40:39.723Z,10.30
2019-05-22T14:43:08.761Z,7.55
2019-05-22T14:45:37.721Z,3.65
2019-05-22T14:48:06.753Z,3.35
2019-05-22T14:50:35.758Z,3.90
2019-05-22T14:53:04.775Z,4.60
2019-05-22T14:55:34.948Z,4.67
2019-05-22T14:58:06.111Z,7.05
2019-05-22T15:00:36.670Z,4.80
2019-05-22T15:03:06.652Z,10.20
2019-05-22T15:05:35.954Z,5.10
2019-05-22T15:08:06.390Z,4.62
2019-05-22T15:10:36.509Z,4.87
2019-05-22T15:13:05.894Z,6.28
2019-05-22T15:15:35.137Z,5.03
2019-05-22T15:18:04.797Z,4.28
2019-05-22T15:20:35.769Z,4.03
2019-05-22T15:23:06.185Z,4.35
2019-05-22T15:25:35.570Z,6.60
2019-05-22T15:28:04.535Z,6.15
2019-05-22T15:30:33.317Z,4.80
2019-05-22T15:33:02.033Z,5.08
2019-05-22T15:35:31.533Z,5.20
2019-05-22T15:38:00.754Z,5.05
2019-05-22T15:40:30.486Z,5.67
2019-05-22T15:42:59.740Z,6.10
2019-05-22T15:45:31.484Z,6.35
2019-05-22T15:48:06.163Z,4.83
2019-05-22T15:50:37.190Z,5.17
2019-05-22T15:53:12.357Z,4.12
2019-05-22T15:55:42.826Z,5.53
2019-05-22T15:58:15.418Z,4.95
2019-05-22T16:00:48.241Z,8.08
2019-05-22T16:03:22.629Z,5.35
2019-05-22T16:05:53.594Z,3.50
2019-05-22T16:08:22.978Z,3.98
2019-05-22T16:10:52.859Z,3.87
2019-05-22T16:13:24.850Z,4.53
2019-05-22T16:15:55.784Z,4.30
2019-05-22T16:18:32.952Z,5.42
2019-05-22T16:21:04.458Z,4.20
2019-05-22T16:23:37.498Z,3.25
2019-05-22T16:26:10.070Z,2.72
2019-05-22T16:28:42.218Z,2.90
2019-05-22T16:31:12.435Z,2.35
2019-05-22T16:33:43.384Z,3.85
2019-05-22T16:36:13.259Z,2.77
2019-05-22T16:38:44.173Z,2.70
2019-05-22T16:41:13.675Z,2.85
2019-05-22T16:43:49.487Z,3.75
2019-05-22T16:46:16.893Z,4.33
2019-05-22T16:48:48.669Z,3.75
2019-05-22T16:51:20.221Z,4.28
2019-05-22T16:53:54.885Z,3.15
2019-05-22T16:56:25.401Z,4.20
2019-05-22T16:58:56.854Z,3.37
2019-05-22T17:01:28.032Z,4.87
2019-05-22T17:03:59.966Z,2.95
2019-05-22T17:06:30.084Z,3.08
2019-05-22T17:09:01.572Z,2.90
2019-05-22T17:11:31.528Z,3.47
2019-05-22T17:14:03.148Z,5.22
2019-05-22T17:16:33.921Z,5.30
2019-05-22T17:19:17.560Z,6.28
2019-05-22T17:21:35.505Z,3.27
2019-05-22T17:24:06.353Z,5.33
2019-05-22T17:26:36.492Z,4.53
2019-05-22T17:29:06.109Z,4.40
2019-05-22T17:31:35.322Z,5.75
2019-05-22T17:34:04.976Z,9.05
2019-05-22T17:36:34.141Z,3.37
2019-05-22T17:39:03.655Z,5.40
2019-05-22T17:41:33.928Z,4.33
2019-05-22T17:44:03.750Z,5.53
2019-05-22T17:46:34.573Z,4.00
2019-05-22T17:49:04.181Z,5.90
2019-05-22T17:51:33.457Z,6.08
2019-05-22T17:54:02.842Z,6.72
2019-05-22T17:56:31.489Z,5.85
2019-05-22T17:59:00.053Z,6.05
2019-05-22T18:01:29.152Z,6.30
2019-05-22T18:03:58.433Z,9.23
2019-05-22T18:06:27.480Z,5.87
2019-05-22T18:08:57.008Z,5.60
2019-05-22T18:11:25.753Z,6.65
2019-05-22T18:13:57.286Z,5.58
2019-05-22T18:16:26.189Z,9.65
2019-05-22T18:18:56.021Z,5.72
2019-05-22T18:21:24.635Z,9.70
2019-05-22T18:23:53.579Z,10.60
2019-05-22T18:26:22.380Z,8.33
2019-05-22T18:28:51.276Z,8.00
2019-05-22T18:31:20.482Z,5.12
2019-05-22T18:33:49.245Z,6.42
2019-05-22T18:36:17.807Z,4.72
2019-05-22T18:38:46.420Z,6.15
2019-05-22T18:41:15.836Z,7.17
2019-05-22T18:43:44.833Z,8.13
2019-05-22T18:46:13.630Z,6.00
2019-05-22T18:48:42.477Z,8.20
2019-05-22T18:51:11.808Z,7.33
2019-05-22T18:53:40.784Z,9.30
2019-05-22T18:56:10.960Z,6.67
2019-05-22T18:58:40.116Z,9.68
2019-05-22T19:01:08.872Z,7.40
2019-05-22T19:03:38.251Z,7.75
2019-05-22T19:06:07.021Z,11.55
2019-05-22T19:08:35.687Z,7.22
2019-05-22T19:11:04.322Z,8.98
2019-05-22T19:13:32.945Z,9.75
2019-05-22T19:16:01.565Z,8.45
2019-05-22T19:18:30.456Z,10.50
2019-05-22T19:20:59.401Z,7.45
2019-05-22T19:23:28.559Z,9.48
2019-05-22T19:25:57.299Z,13.45
2019-05-22T19:28:42.353Z,12.33
2019-05-22T19:31:00.020Z,9.85
2019-05-22T19:33:29.052Z,10.65
2019-05-22T19:35:59.385Z,10.20
2019-05-22T19:38:28.275Z,11.65
2019-05-22T19:40:58.091Z,13.62
2019-05-22T19:43:28.635Z,14.35
2019-05-22T19:45:57.753Z,10.32
2019-05-22T19:48:26.514Z,13.28
2019-05-22T19:50:55.569Z,12.18
2019-05-22T19:53:27.252Z,14.45
2019-05-22T19:55:56.329Z,11.53
2019-05-22T19:58:25.894Z,9.88
2019-05-22T20:00:54.956Z,14.98
2019-05-22T20:03:24.538Z,10.53
2019-05-22T20:05:55.441Z,16.02
2019-05-22T20:08:24.026Z,10.53
2019-05-22T20:10:53.149Z,12.25
2019-05-22T20:13:23.627Z,14.00
2019-05-22T20:15:52.428Z,12.90
2019-05-22T20:18:21.351Z,15.32
2019-05-22T20:20:50.140Z,14.68
2019-05-22T20:23:34.300Z,15.43
2019-05-22T20:25:50.433Z,10.78
2019-05-22T20:28:20.111Z,15.13
2019-05-22T20:30:48.992Z,19.98
2019-05-22T20:33:17.665Z,16.05
2019-05-22T20:35:46.226Z,14.03
2019-05-22T20:38:14.823Z,13.18
2019-05-22T20:40:44.035Z,13.98
2019-05-22T20:43:13.336Z,17.15
2019-05-22T20:45:42.922Z,24.80
2019-05-22T20:48:15.168Z,25.40
2019-05-22T20:50:44.287Z,27.70
2019-05-22T20:53:14.266Z,15.88
2019-05-22T20:55:43.745Z,19.35
2019-05-22T20:58:14.396Z,53.63
2019-05-22T21:00:43.973Z,17.57
2019-05-22T21:03:14.646Z,21.73
2019-05-22T21:05:43.533Z,14.40
2019-05-22T21:08:13.458Z,11.08
2019-05-22T21:10:50.182Z,10.70
2019-05-22T21:13:19.705Z,13.78
2019-05-22T21:15:49.845Z,13.15
2019-05-22T21:18:20.457Z,12.55
2019-05-22T21:20:54.847Z,16.07
2019-05-22T21:23:22.116Z,13.20
2019-05-22T21:25:52.037Z,15.93
2019-05-22T21:28:20.589Z,17.15
2019-05-22T21:30:52.023Z,21.52
2019-05-22T21:33:21.798Z,20.50
2019-05-22T21:35:50.585Z,21.10
2019-05-22T21:38:21.389Z,22.32
2019-05-22T21:40:50.736Z,22.67
2019-05-22T21:43:19.409Z,22.52
2019-05-22T21:45:49.290Z,21.50
2019-05-22T21:48:18.572Z,20.50
2019-05-22T21:50:47.247Z,18.30
2019-05-22T21:53:16.883Z,18.85
2019-05-22T21:55:47.055Z,17.65
2019-05-22T21:58:16.433Z,22.32
2019-05-22T22:00:56.903Z,25.68
2019-05-22T22:03:35.422Z,20.25
2019-05-22T22:06:05.860Z,23.98
2019-05-22T22:08:35.527Z,20.12
2019-05-22T22:11:05.365Z,20.88
2019-05-22T22:13:34.870Z,18.62
2019-05-22T22:16:03.501Z,19.92
2019-05-22T22:18:33.196Z,17.52
2019-05-22T22:21:02.818Z,20.00
2019-05-22T22:23:32.100Z,19.73
2019-05-22T22:26:01.869Z,19.48
2019-05-22T22:28:31.113Z,20.60
2019-05-22T22:31:05.891Z,20.90
2019-05-22T22:33:37.287Z,17.27
2019-05-22T22:36:08.176Z,20.17
2019-05-22T22:38:38.393Z,18.67
2019-05-22T22:41:09.051Z,16.00
2019-05-22T22:43:39.649Z,18.37
2019-05-22T22:46:18.863Z,23.27
2019-05-22T22:48:51.921Z,20.08
2019-05-22T22:51:22.715Z,17.57
2019-05-22T22:53:51.862Z,17.20
2019-05-22T22:56:20.736Z,15.88
2019-05-22T22:58:49.557Z,18.25
2019-05-22T23:01:25.515Z,17.27
2019-05-22T23:03:56.937Z,17.00
2019-05-22T23:06:25.513Z,17.40
2019-05-22T23:08:54.629Z,22.27
2019-05-22T23:11:24.847Z,15.03
2019-05-22T23:13:53.612Z,16.95
2019-05-22T23:16:23.702Z,16.30
2019-05-22T23:19:11.845Z,21.05
2019-05-22T23:21:40.493Z,17.98
2019-05-22T23:24:09.782Z,19.40
2019-05-22T23:26:38.777Z,19.80
2019-05-22T23:29:08.651Z,19.25
2019-05-22T23:31:38.562Z,19.02
2019-05-22T23:34:08.066Z,23.05
2019-05-22T23:36:37.527Z,22.50
2019-05-22T23:39:10.817Z,21.48
2019-05-22T23:44:11.044Z,18.65
2019-05-22T23:46:40.860Z,21.45
2019-05-22T23:49:10.199Z,24.18
2019-05-22T23:51:38.794Z,50.83
2019-05-22T23:54:09.494Z,31.15
2019-05-22T23:56:40.168Z,23.12
2019-05-22T23:59:10.766Z,28.00
